createdAt,value
2018-03-25T00:00:52.956Z,3.42
2018-03-25T00:01:52.870Z,3.37
2018-03-25T00:02:52.788Z,3.40
2018-03-25T00:03:52.704Z,3.28
2018-03-25T00:04:52.620Z,3.31
2018-03-25T00:05:52.537Z,3.47
2018-03-25T00:06:52.455Z,3.40
2018-03-25T00:07:52.368Z,3.44
2018-03-25T00:08:52.286Z,3.45
2018-03-25T00:09:52.199Z,3.42
2018-03-25T00:10:52.123Z,3.40
2018-03-25T00:11:52.035Z,3.47
2018-03-25T00:12:51.956Z,3.42
2018-03-25T00:13:51.864Z,3.37
2018-03-25T00:14:51.780Z,3.34
2018-03-25T00:15:51.701Z,3.36
2018-03-25T00:16:51.616Z,3.36
2018-03-25T00:17:51.531Z,3.28
2018-03-25T00:18:51.445Z,3.37
2018-03-25T00:19:51.362Z,3.47
2018-03-25T00:20:51.278Z,3.25
2018-03-25T00:21:51.195Z,3.29
2018-03-25T00:22:51.110Z,3.26
2018-03-25T00:23:51.028Z,3.26
2018-03-25T00:24:50.942Z,3.29
2018-03-25T00:25:50.858Z,3.26
2018-03-25T00:26:50.774Z,3.40
2018-03-25T00:27:50.693Z,3.29
2018-03-25T00:28:50.612Z,3.31
2018-03-25T00:29:50.523Z,3.44
2018-03-25T00:30:50.437Z,3.42
2018-03-25T00:31:50.357Z,3.42
2018-03-25T00:32:50.280Z,3.44
2018-03-25T00:33:50.209Z,3.40
2018-03-25T00:34:50.117Z,3.47
2018-03-25T00:35:50.022Z,3.45
2018-03-25T00:36:49.938Z,3.42
2018-03-25T00:37:49.852Z,3.44
2018-03-25T00:38:49.767Z,3.40
2018-03-25T00:39:49.685Z,3.41
2018-03-25T00:40:49.600Z,3.47
2018-03-25T00:41:49.517Z,3.42
2018-03-25T00:42:49.432Z,3.36
2018-03-25T00:43:49.352Z,3.29
2018-03-25T00:44:49.277Z,3.32
2018-03-25T00:45:49.179Z,3.28
2018-03-25T00:46:49.099Z,3.34
2018-03-25T00:47:49.021Z,3.32
2018-03-25T00:48:48.929Z,3.18
2018-03-25T00:49:48.846Z,3.26
2018-03-25T00:50:48.761Z,3.25
2018-03-25T00:51:48.679Z,3.19
2018-03-25T00:52:48.617Z,3.13
2018-03-25T00:53:48.515Z,3.03
2018-03-25T00:54:48.423Z,3.13
2018-03-25T00:55:48.346Z,2.98
2018-03-25T00:56:48.257Z,2.93
2018-03-25T00:57:48.172Z,2.93
2018-03-25T00:58:48.088Z,2.89
2018-03-25T00:59:48.007Z,2.77
2018-03-25T01:00:48.676Z,2.80
2018-03-25T01:01:47.837Z,2.75
2018-03-25T01:02:47.762Z,2.83
2018-03-25T01:03:48.207Z,2.83
2018-03-25T01:04:47.586Z,2.83
2018-03-25T01:05:47.501Z,2.93
2018-03-25T01:06:47.418Z,2.83
2018-03-25T01:07:47.332Z,2.80
2018-03-25T01:08:47.250Z,2.85
2018-03-25T01:09:47.161Z,2.89
2018-03-25T01:10:47.079Z,2.80
2018-03-25T01:11:46.996Z,2.83
2018-03-25T01:12:46.912Z,2.82
2018-03-25T01:13:46.825Z,2.80
2018-03-25T01:14:46.741Z,2.75
2018-03-25T01:15:46.671Z,2.80
2018-03-25T01:16:46.572Z,2.74
2018-03-25T01:17:46.493Z,2.64
2018-03-25T01:18:46.405Z,2.72
2018-03-25T01:19:46.321Z,2.62
2018-03-25T01:20:46.239Z,2.53
2018-03-25T01:21:46.164Z,2.49
2018-03-25T01:22:46.083Z,2.50
2018-03-25T01:23:45.982Z,2.50
2018-03-25T01:24:45.897Z,2.47
2018-03-25T01:25:45.812Z,2.47
2018-03-25T01:26:45.730Z,2.51
2018-03-25T01:27:45.648Z,2.54
2018-03-25T01:28:45.561Z,2.47
2018-03-25T01:29:45.480Z,2.46
2018-03-25T01:30:45.393Z,2.53
2018-03-25T01:31:45.309Z,2.53
2018-03-25T01:32:45.235Z,2.60
2018-03-25T01:33:45.139Z,2.61
2018-03-25T01:34:45.054Z,2.44
2018-03-25T01:35:44.970Z,2.53
2018-03-25T01:36:44.885Z,2.49
2018-03-25T01:37:44.802Z,2.57
2018-03-25T01:38:44.721Z,2.46
2018-03-25T01:39:44.635Z,2.44
2018-03-25T01:40:44.551Z,2.54
2018-03-25T01:41:44.478Z,2.50
2018-03-25T01:42:44.429Z,2.60
2018-03-25T01:43:44.294Z,2.56
2018-03-25T01:44:44.211Z,2.56
2018-03-25T01:45:44.126Z,2.50
2018-03-25T01:46:44.041Z,2.46
2018-03-25T01:47:43.964Z,2.42
2018-03-25T01:48:43.872Z,2.49
2018-03-25T01:49:43.788Z,2.51
2018-03-25T01:50:43.706Z,2.50
2018-03-25T01:51:43.617Z,2.39
2018-03-25T01:52:43.537Z,2.35
2018-03-25T01:53:43.449Z,2.42
2018-03-25T01:54:43.369Z,2.49
2018-03-25T01:55:43.277Z,2.39
2018-03-25T01:56:43.195Z,2.50
2018-03-25T01:57:43.109Z,2.49
2018-03-25T01:58:43.027Z,2.44
2018-03-25T01:59:42.940Z,2.53
2018-03-25T02:00:42.858Z,2.47
2018-03-25T02:01:42.772Z,2.36
2018-03-25T02:02:42.688Z,2.39
2018-03-25T02:03:42.605Z,2.42
2018-03-25T02:04:42.520Z,2.44
2018-03-25T02:05:42.431Z,2.38
2018-03-25T02:06:42.349Z,2.43
2018-03-25T02:07:42.267Z,2.38
2018-03-25T02:08:42.180Z,2.39
2018-03-25T02:09:42.095Z,2.43
2018-03-25T02:10:42.011Z,2.42
2018-03-25T02:11:41.938Z,2.36
2018-03-25T02:12:41.841Z,2.42
2018-03-25T02:13:41.763Z,2.44
2018-03-25T02:14:41.671Z,2.38
2018-03-25T02:15:41.589Z,2.31
2018-03-25T02:16:41.503Z,2.31
2018-03-25T02:17:41.417Z,2.26
2018-03-25T02:18:41.333Z,2.22
2018-03-25T02:19:41.249Z,2.13
2018-03-25T02:20:41.165Z,2.11
2018-03-25T02:21:41.083Z,2.07
2018-03-25T02:22:40.996Z,2.15
2018-03-25T02:23:40.916Z,2.15
2018-03-25T02:24:40.835Z,2.14
2018-03-25T02:25:40.741Z,2.13
2018-03-25T02:26:40.659Z,2.15
2018-03-25T02:27:40.572Z,2.10
2018-03-25T02:28:40.511Z,2.07
2018-03-25T02:29:40.405Z,2.13
2018-03-25T02:30:40.318Z,2.13
2018-03-25T02:31:40.231Z,2.11
2018-03-25T02:32:40.147Z,2.11
2018-03-25T02:33:40.076Z,2.11
2018-03-25T02:34:39.990Z,2.11
2018-03-25T02:35:39.894Z,2.10
2018-03-25T02:36:39.820Z,2.02
2018-03-25T02:37:39.730Z,2.10
2018-03-25T02:38:39.645Z,2.06
2018-03-25T02:39:39.554Z,2.10
2018-03-25T02:40:39.468Z,2.04
2018-03-25T02:41:39.383Z,1.95
2018-03-25T02:42:39.300Z,2.02
2018-03-25T02:43:39.218Z,1.95
2018-03-25T02:44:39.128Z,1.94
2018-03-25T02:45:39.057Z,1.95
2018-03-25T02:46:38.972Z,1.92
2018-03-25T02:47:38.876Z,2.04
2018-03-25T02:48:38.809Z,2.06
2018-03-25T02:49:38.705Z,2.04
2018-03-25T02:50:38.625Z,2.07
2018-03-25T02:51:38.539Z,2.08
2018-03-25T02:52:38.457Z,2.08
2018-03-25T02:53:38.369Z,2.04
2018-03-25T02:54:38.280Z,1.97
2018-03-25T02:55:38.194Z,1.95
2018-03-25T02:56:38.110Z,2.02
2018-03-25T02:57:38.024Z,2.02
2018-03-25T02:58:37.939Z,1.89
2018-03-25T02:59:37.853Z,1.94
2018-03-25T03:00:37.776Z,1.97
2018-03-25T03:01:39.118Z,1.94
2018-03-25T03:02:37.625Z,1.99
2018-03-25T03:03:37.529Z,1.99
2018-03-25T03:04:37.441Z,2.07
2018-03-25T03:05:37.344Z,2.04
2018-03-25T03:06:37.263Z,2.06
2018-03-25T03:07:37.175Z,2.06
2018-03-25T03:08:37.108Z,1.95
2018-03-25T03:09:37.006Z,1.91
2018-03-25T03:10:36.919Z,1.85
2018-03-25T03:11:36.834Z,1.74
2018-03-25T03:12:36.747Z,1.59
2018-03-25T03:13:36.668Z,1.53
2018-03-25T03:14:36.577Z,1.56
2018-03-25T03:15:36.495Z,1.50
2018-03-25T03:16:36.409Z,1.60
2018-03-25T03:17:36.325Z,1.52
2018-03-25T03:18:36.242Z,1.52
2018-03-25T03:19:36.156Z,1.58
2018-03-25T03:20:36.073Z,1.63
2018-03-25T03:21:35.987Z,1.49
2018-03-25T03:22:35.898Z,1.53
2018-03-25T03:23:35.812Z,1.48
2018-03-25T03:24:35.730Z,1.56
2018-03-25T03:25:35.643Z,1.59
2018-03-25T03:26:35.559Z,1.52
2018-03-25T03:27:35.470Z,1.59
2018-03-25T03:28:35.387Z,1.56
2018-03-25T03:29:35.299Z,1.56
2018-03-25T03:30:35.217Z,1.55
2018-03-25T03:31:35.208Z,1.55
2018-03-25T03:32:35.046Z,1.62
2018-03-25T03:33:34.961Z,1.70
2018-03-25T03:34:34.878Z,1.59
2018-03-25T03:35:34.789Z,1.68
2018-03-25T03:36:34.704Z,1.68
2018-03-25T03:37:34.624Z,1.68
2018-03-25T03:38:34.536Z,1.60
2018-03-25T03:39:34.447Z,1.53
2018-03-25T03:40:34.361Z,1.55
2018-03-25T03:41:34.284Z,1.52
2018-03-25T03:42:34.201Z,1.52
2018-03-25T03:43:34.108Z,1.52
2018-03-25T03:44:34.021Z,1.55
2018-03-25T03:45:33.935Z,1.50
2018-03-25T03:46:33.850Z,1.58
2018-03-25T03:47:33.766Z,1.53
2018-03-25T03:48:33.680Z,1.52
2018-03-25T03:49:33.599Z,1.60
2018-03-25T03:50:33.510Z,1.48
2018-03-25T03:51:33.426Z,1.52
2018-03-25T03:52:33.342Z,1.50
2018-03-25T03:53:33.259Z,1.52
2018-03-25T03:54:33.169Z,1.50
2018-03-25T03:55:33.082Z,1.50
2018-03-25T03:56:32.998Z,1.55
2018-03-25T03:57:32.912Z,1.58
2018-03-25T03:58:32.828Z,1.49
2018-03-25T03:59:32.741Z,1.50
2018-03-25T04:00:32.657Z,1.50
2018-03-25T04:01:32.597Z,1.49
2018-03-25T04:02:32.484Z,1.59
2018-03-25T04:03:32.436Z,1.53
2018-03-25T04:04:32.315Z,1.49
2018-03-25T04:05:32.232Z,1.52
2018-03-25T04:06:32.143Z,1.55
2018-03-25T04:07:32.058Z,1.45
2018-03-25T04:09:31.906Z,1.45
2018-03-25T04:10:31.821Z,1.42
2018-03-25T04:11:31.771Z,1.48
2018-03-25T04:12:31.628Z,1.48
2018-03-25T04:13:31.544Z,1.48
2018-03-25T04:14:31.468Z,1.42
2018-03-25T04:15:31.372Z,1.49
2018-03-25T04:16:31.432Z,1.44
2018-03-25T04:17:31.218Z,1.37
2018-03-25T04:18:31.116Z,1.35
2018-03-25T04:19:31.031Z,1.23
2018-03-25T04:20:30.943Z,1.24
2018-03-25T04:21:30.861Z,1.22
2018-03-25T04:22:30.776Z,1.16
2018-03-25T04:23:30.690Z,1.20
2018-03-25T04:24:30.611Z,1.22
2018-03-25T04:25:30.518Z,1.13
2018-03-25T04:26:30.439Z,1.14
2018-03-25T04:27:30.370Z,1.17
2018-03-25T04:28:30.268Z,1.16
2018-03-25T04:29:30.176Z,1.20
2018-03-25T04:30:30.102Z,1.20
2018-03-25T04:31:30.009Z,1.26
2018-03-25T04:32:29.921Z,1.22
2018-03-25T04:33:29.832Z,1.26
2018-03-25T04:34:29.769Z,1.17
2018-03-25T04:35:29.661Z,1.23
2018-03-25T04:36:29.576Z,1.14
2018-03-25T04:37:29.490Z,1.10
2018-03-25T04:38:29.407Z,1.06
2018-03-25T04:39:29.332Z,1.12
2018-03-25T04:40:29.237Z,1.10
2018-03-25T04:41:29.151Z,1.10
2018-03-25T04:42:29.062Z,1.10
2018-03-25T04:43:28.977Z,1.12
2018-03-25T04:44:28.947Z,1.13
2018-03-25T04:45:28.822Z,1.16
2018-03-25T04:46:28.717Z,1.22
2018-03-25T04:47:28.633Z,1.19
2018-03-25T04:48:28.592Z,1.22
2018-03-25T04:49:28.462Z,1.17
2018-03-25T04:50:28.378Z,1.26
2018-03-25T04:51:28.301Z,1.26
2018-03-25T04:52:28.209Z,1.24
2018-03-25T04:53:28.119Z,1.42
2018-03-25T04:54:28.035Z,1.26
2018-03-25T04:55:27.964Z,1.34
2018-03-25T04:56:27.862Z,1.38
2018-03-25T04:57:27.778Z,1.37
2018-03-25T04:58:27.690Z,1.28
2018-03-25T04:59:27.607Z,1.34
2018-03-25T05:00:27.524Z,1.22
2018-03-25T05:01:27.437Z,1.34
2018-03-25T05:02:27.348Z,1.24
2018-03-25T05:03:27.262Z,1.35
2018-03-25T05:04:27.177Z,1.24
2018-03-25T05:05:27.092Z,1.23
2018-03-25T05:06:27.006Z,1.23
2018-03-25T05:07:26.921Z,1.30
2018-03-25T05:08:26.838Z,1.24
2018-03-25T05:09:26.748Z,1.24
2018-03-25T05:10:26.661Z,1.23
2018-03-25T05:11:26.579Z,1.22
2018-03-25T05:12:26.498Z,1.26
2018-03-25T05:13:26.406Z,1.26
2018-03-25T05:14:26.319Z,1.22
2018-03-25T05:15:26.239Z,1.22
2018-03-25T05:16:26.150Z,1.19
2018-03-25T05:17:26.062Z,1.22
2018-03-25T05:18:25.976Z,1.12
2018-03-25T05:19:25.892Z,1.06
2018-03-25T05:20:25.806Z,1.12
2018-03-25T05:21:25.717Z,1.17
2018-03-25T05:22:25.637Z,1.13
2018-03-25T05:23:25.549Z,1.14
2018-03-25T05:24:25.476Z,1.12
2018-03-25T05:25:25.380Z,1.10
2018-03-25T05:26:25.292Z,1.13
2018-03-25T05:27:25.207Z,1.16
2018-03-25T05:28:25.121Z,1.13
2018-03-25T05:29:25.035Z,1.17
2018-03-25T05:30:24.949Z,1.08
2018-03-25T05:31:24.868Z,1.13
2018-03-25T05:32:24.786Z,1.08
2018-03-25T05:33:24.690Z,1.13
2018-03-25T05:34:24.609Z,1.08
2018-03-25T05:35:24.521Z,1.10
2018-03-25T05:36:24.435Z,0.99
2018-03-25T05:37:24.348Z,1.08
2018-03-25T05:38:24.268Z,1.05
2018-03-25T05:39:24.183Z,0.96
2018-03-25T05:40:24.092Z,0.94
2018-03-25T05:41:24.010Z,0.95
2018-03-25T05:42:23.920Z,0.96
2018-03-25T05:43:23.837Z,1.01
2018-03-25T05:44:23.749Z,1.06
2018-03-25T05:45:23.841Z,1.04
2018-03-25T05:46:23.578Z,1.06
2018-03-25T05:47:23.494Z,1.05
2018-03-25T05:48:23.413Z,1.12
2018-03-25T05:49:23.319Z,1.14
2018-03-25T05:50:23.236Z,1.06
2018-03-25T05:51:23.148Z,1.16
2018-03-25T05:52:23.078Z,1.14
2018-03-25T05:53:22.975Z,1.19
2018-03-25T05:54:22.894Z,1.20
2018-03-25T05:55:22.817Z,1.28
2018-03-25T05:56:22.722Z,1.28
2018-03-25T05:57:22.637Z,1.24
2018-03-25T05:58:22.549Z,1.30
2018-03-25T05:59:22.463Z,1.32
2018-03-25T06:00:22.423Z,1.31
2018-03-25T06:01:22.304Z,1.40
2018-03-25T06:02:22.208Z,1.35
2018-03-25T06:03:22.120Z,1.41
2018-03-25T06:04:22.035Z,1.40
2018-03-25T06:05:21.950Z,1.50
2018-03-25T06:06:21.862Z,1.53
2018-03-25T06:07:21.779Z,1.45
2018-03-25T06:08:21.692Z,1.53
2018-03-25T06:09:21.608Z,1.44
2018-03-25T06:10:21.522Z,1.55
2018-03-25T06:11:21.437Z,1.53
2018-03-25T06:12:21.349Z,1.62
2018-03-25T06:13:21.268Z,1.67
2018-03-25T06:14:21.183Z,1.63
2018-03-25T06:15:21.094Z,1.60
2018-03-25T06:16:21.008Z,1.68
2018-03-25T06:17:20.922Z,1.73
2018-03-25T06:18:20.838Z,1.70
2018-03-25T06:19:20.760Z,1.76
2018-03-25T06:20:20.701Z,1.84
2018-03-25T06:21:20.662Z,1.80
2018-03-25T06:22:20.498Z,1.89
2018-03-25T06:23:20.432Z,1.97
2018-03-25T06:24:20.326Z,2.00
2018-03-25T06:25:20.242Z,1.94
2018-03-25T06:26:20.155Z,1.99
2018-03-25T06:27:20.071Z,2.00
2018-03-25T06:28:19.986Z,1.99
2018-03-25T06:29:19.899Z,2.10
2018-03-25T06:30:19.815Z,2.06
2018-03-25T06:31:19.744Z,2.08
2018-03-25T06:32:19.646Z,2.00
2018-03-25T06:33:19.571Z,2.07
2018-03-25T06:34:19.511Z,2.11
2018-03-25T06:35:19.393Z,2.13
2018-03-25T06:36:19.304Z,2.20
2018-03-25T06:37:19.219Z,2.26
2018-03-25T06:38:19.749Z,2.29
2018-03-25T06:39:19.050Z,2.32
2018-03-25T06:40:18.964Z,2.36
2018-03-25T06:41:18.892Z,2.38
2018-03-25T06:42:18.812Z,2.38
2018-03-25T06:43:18.714Z,2.43
2018-03-25T06:44:18.635Z,2.39
2018-03-25T06:45:18.543Z,2.44
2018-03-25T06:46:18.456Z,2.49
2018-03-25T06:47:18.374Z,2.60
2018-03-25T06:48:18.316Z,2.51
2018-03-25T06:49:18.214Z,2.60
2018-03-25T06:50:18.116Z,2.74
2018-03-25T06:51:18.082Z,2.68
2018-03-25T06:52:17.950Z,2.68
2018-03-25T06:53:17.872Z,2.69
2018-03-25T06:54:17.777Z,2.77
2018-03-25T06:55:17.695Z,2.80
2018-03-25T06:56:17.609Z,2.89
2018-03-25T06:57:17.528Z,2.92
2018-03-25T06:58:17.439Z,2.98
2018-03-25T06:59:17.355Z,2.97
2018-03-25T07:00:17.277Z,2.97
2018-03-25T07:01:17.189Z,3.03
2018-03-25T07:02:17.104Z,3.10
2018-03-25T07:03:17.020Z,3.01
2018-03-25T07:04:16.936Z,3.08
2018-03-25T07:05:16.849Z,3.00
2018-03-25T07:06:16.764Z,3.05
2018-03-25T07:07:16.684Z,3.08
2018-03-25T07:08:16.598Z,3.13
2018-03-25T07:09:16.514Z,3.07
2018-03-25T07:10:16.429Z,3.16
2018-03-25T07:11:16.344Z,3.22
2018-03-25T07:12:16.302Z,3.18
2018-03-25T07:13:16.173Z,3.19
2018-03-25T07:14:16.091Z,3.23
2018-03-25T07:15:16.012Z,3.26
2018-03-25T07:16:15.923Z,3.21
2018-03-25T07:17:15.840Z,3.26
2018-03-25T07:18:15.754Z,3.26
2018-03-25T07:19:15.671Z,3.31
2018-03-25T07:20:15.591Z,3.29
2018-03-25T07:21:15.503Z,3.41
2018-03-25T07:22:15.445Z,3.47
2018-03-25T07:23:15.334Z,3.53
2018-03-25T07:24:15.252Z,3.62
2018-03-25T07:25:15.275Z,3.59
2018-03-25T07:26:15.084Z,3.68
2018-03-25T07:27:15.002Z,3.63
2018-03-25T07:28:14.919Z,3.63
2018-03-25T07:29:14.834Z,3.66
2018-03-25T07:30:14.806Z,3.77
2018-03-25T07:31:14.691Z,3.80
2018-03-25T07:32:14.592Z,3.88
2018-03-25T07:33:14.508Z,3.87
2018-03-25T07:34:14.416Z,3.96
2018-03-25T07:35:14.330Z,3.94
2018-03-25T07:36:14.263Z,3.95
2018-03-25T07:37:14.166Z,3.96
2018-03-25T07:38:14.081Z,3.99
2018-03-25T07:39:13.996Z,4.04
2018-03-25T07:40:13.915Z,4.13
2018-03-25T07:41:13.828Z,4.10
2018-03-25T07:42:13.747Z,4.22
2018-03-25T07:43:13.663Z,4.10
2018-03-25T07:44:13.582Z,4.13
2018-03-25T07:45:13.496Z,4.20
2018-03-25T07:46:13.429Z,4.26
2018-03-25T07:47:13.334Z,4.34
2018-03-25T07:48:13.249Z,4.32
2018-03-25T07:49:13.161Z,4.40
2018-03-25T07:50:13.078Z,4.34
2018-03-25T07:51:13.022Z,4.45
2018-03-25T07:52:12.913Z,4.52
2018-03-25T07:53:12.831Z,4.49
2018-03-25T07:54:12.745Z,4.60
2018-03-25T07:55:12.663Z,4.58
2018-03-25T07:56:12.580Z,4.66
2018-03-25T07:57:12.498Z,4.59
2018-03-25T07:58:12.413Z,4.70
2018-03-25T07:59:12.331Z,4.82
2018-03-25T08:00:12.250Z,4.86
2018-03-25T08:01:12.174Z,4.75
2018-03-25T08:02:12.095Z,4.86
2018-03-25T08:03:11.999Z,4.80
2018-03-25T08:04:11.917Z,4.87
2018-03-25T08:05:11.835Z,4.92
2018-03-25T08:06:12.680Z,4.87
2018-03-25T08:07:11.669Z,4.86
2018-03-25T08:08:11.585Z,4.90
2018-03-25T08:09:11.513Z,4.96
2018-03-25T08:10:11.419Z,5.02
2018-03-25T08:11:11.340Z,5.08
2018-03-25T08:12:11.256Z,5.11
2018-03-25T08:13:11.171Z,5.18
2018-03-25T08:14:11.088Z,5.25
2018-03-25T08:15:11.005Z,5.23
2018-03-25T08:16:10.958Z,5.36
2018-03-25T08:17:10.860Z,5.28
2018-03-25T08:18:10.757Z,5.46
2018-03-25T08:19:10.697Z,5.36
2018-03-25T08:20:10.595Z,5.41
2018-03-25T08:21:10.516Z,5.44
2018-03-25T08:22:10.432Z,5.38
2018-03-25T08:23:10.343Z,5.48
2018-03-25T08:24:10.262Z,5.59
2018-03-25T08:25:10.179Z,5.62
2018-03-25T08:26:10.097Z,5.69
2018-03-25T08:27:10.018Z,5.66
2018-03-25T08:28:09.935Z,5.75
2018-03-25T08:29:09.856Z,5.79
2018-03-25T08:30:09.766Z,5.83
2018-03-25T08:31:09.881Z,5.83
2018-03-25T08:32:09.604Z,5.93
2018-03-25T08:33:09.519Z,5.98
2018-03-25T08:34:09.437Z,5.99
2018-03-25T08:35:09.364Z,5.97
2018-03-25T08:36:09.311Z,6.11
2018-03-25T08:37:09.192Z,6.11
2018-03-25T08:38:09.127Z,6.04
2018-03-25T08:39:09.026Z,6.07
2018-03-25T08:40:08.944Z,6.16
2018-03-25T08:41:08.863Z,6.09
2018-03-25T08:42:08.781Z,6.20
2018-03-25T08:43:08.708Z,6.16
2018-03-25T08:44:08.618Z,6.31
2018-03-25T08:45:08.537Z,6.22
2018-03-25T08:46:08.453Z,6.20
2018-03-25T08:47:08.369Z,6.24
2018-03-25T08:48:08.287Z,6.30
2018-03-25T08:49:08.268Z,6.28
2018-03-25T08:50:08.125Z,6.30
2018-03-25T08:51:08.044Z,6.33
2018-03-25T08:52:07.961Z,6.27
2018-03-25T08:53:07.876Z,6.38
2018-03-25T08:54:07.797Z,6.42
2018-03-25T08:55:07.722Z,6.41
2018-03-25T08:56:07.634Z,6.46
2018-03-25T08:57:07.553Z,6.56
2018-03-25T08:58:07.473Z,6.54
2018-03-25T08:59:07.394Z,6.59
2018-03-25T09:00:07.305Z,6.62
2018-03-25T09:01:07.223Z,6.59
2018-03-25T09:02:07.142Z,6.57
2018-03-25T09:03:07.072Z,6.59
2018-03-25T09:04:08.894Z,6.72
2018-03-25T09:05:06.901Z,6.69
2018-03-25T09:06:06.817Z,6.69
2018-03-25T09:07:06.771Z,6.75
2018-03-25T09:08:06.712Z,6.74
2018-03-25T09:09:06.618Z,6.78
2018-03-25T09:10:06.487Z,6.84
2018-03-25T09:11:06.407Z,6.88
2018-03-25T09:12:06.325Z,6.88
2018-03-25T09:13:06.290Z,6.84
2018-03-25T09:14:06.164Z,6.93
2018-03-25T09:15:06.081Z,6.88
2018-03-25T09:16:06.129Z,6.85
2018-03-25T09:17:05.918Z,6.93
2018-03-25T09:18:05.835Z,6.96
2018-03-25T09:19:05.754Z,6.89
2018-03-25T09:20:05.753Z,6.92
2018-03-25T09:21:05.599Z,6.96
2018-03-25T09:22:05.537Z,6.96
2018-03-25T09:23:05.430Z,6.97
2018-03-25T09:24:05.348Z,7.05
2018-03-25T09:25:05.266Z,7.03
2018-03-25T09:26:05.202Z,7.00
2018-03-25T09:27:05.109Z,7.14
2018-03-25T09:28:05.022Z,7.18
2018-03-25T09:29:04.941Z,7.25
2018-03-25T09:30:04.859Z,7.32
2018-03-25T09:31:04.779Z,7.42
2018-03-25T09:32:04.702Z,7.43
2018-03-25T09:33:04.614Z,7.53
2018-03-25T09:34:04.550Z,7.57
2018-03-25T09:35:04.529Z,7.58
2018-03-25T09:36:04.458Z,7.63
2018-03-25T09:37:04.291Z,7.61
2018-03-25T09:38:04.223Z,7.67
2018-03-25T09:39:04.133Z,7.73
2018-03-25T09:40:04.050Z,7.75
2018-03-25T09:41:04.301Z,7.72
2018-03-25T09:42:03.919Z,7.70
2018-03-25T09:43:03.807Z,7.80
2018-03-25T09:44:03.726Z,7.80
2018-03-25T09:45:03.651Z,7.83
2018-03-25T09:46:03.570Z,7.93
2018-03-25T09:47:03.484Z,7.95
2018-03-25T09:48:03.405Z,8.05
2018-03-25T09:49:03.321Z,8.06
2018-03-25T09:50:03.248Z,8.15
2018-03-25T09:51:03.162Z,8.30
2018-03-25T09:52:03.083Z,8.24
2018-03-25T09:53:03.002Z,8.27
2018-03-25T09:54:02.923Z,8.45
2018-03-25T09:55:02.842Z,8.51
2018-03-25T09:56:02.762Z,8.58
2018-03-25T09:57:02.684Z,8.63
2018-03-25T09:58:02.601Z,8.67
2018-03-25T09:59:02.526Z,8.70
2018-03-25T10:00:02.442Z,8.73
2018-03-25T10:01:02.361Z,8.79
2018-03-25T10:02:02.282Z,8.82
2018-03-25T10:03:02.253Z,8.74
2018-03-25T10:04:02.124Z,8.85
2018-03-25T10:05:02.042Z,8.81
2018-03-25T10:06:01.966Z,8.92
2018-03-25T10:07:01.884Z,8.94
2018-03-25T10:08:01.805Z,8.91
2018-03-25T10:09:01.728Z,8.92
2018-03-25T10:10:01.646Z,9.10
2018-03-25T10:11:01.567Z,9.10
2018-03-25T10:12:01.501Z,9.19
2018-03-25T10:13:01.408Z,9.19
2018-03-25T10:14:01.328Z,9.28
2018-03-25T10:15:01.247Z,9.39
2018-03-25T10:16:01.169Z,9.46
2018-03-25T10:17:01.117Z,9.50
2018-03-25T10:18:01.011Z,9.61
2018-03-25T10:19:00.932Z,9.73
2018-03-25T10:20:00.856Z,9.73
2018-03-25T10:21:00.780Z,9.73
2018-03-25T10:22:00.696Z,9.74
2018-03-25T10:23:00.625Z,9.84
2018-03-25T10:24:00.542Z,9.86
2018-03-25T10:25:00.475Z,9.94
2018-03-25T10:26:00.389Z,10.01
2018-03-25T10:27:00.309Z,10.01
2018-03-25T10:28:00.222Z,10.04
2018-03-25T10:29:00.146Z,10.02
2018-03-25T10:30:00.066Z,10.16
2018-03-25T10:30:59.984Z,10.20
2018-03-25T10:31:59.907Z,10.15
2018-03-25T10:32:59.833Z,10.22
2018-03-25T10:33:59.750Z,10.25
2018-03-25T10:34:59.674Z,10.20
2018-03-25T10:35:59.596Z,10.31
2018-03-25T10:36:59.526Z,10.38
2018-03-25T10:37:59.436Z,10.42
2018-03-25T10:38:59.362Z,10.49
2018-03-25T10:39:59.282Z,10.51
2018-03-25T10:40:59.201Z,10.57
2018-03-25T10:41:59.127Z,10.57
2018-03-25T10:42:59.051Z,10.54
2018-03-25T10:43:58.967Z,10.49
2018-03-25T10:44:58.889Z,10.44
2018-03-25T10:45:58.811Z,10.49
2018-03-25T10:46:58.732Z,10.34
2018-03-25T10:47:58.658Z,10.40
2018-03-25T10:48:58.579Z,10.48
2018-03-25T10:49:58.502Z,10.41
2018-03-25T10:50:58.422Z,10.42
2018-03-25T10:51:58.346Z,10.41
2018-03-25T10:52:58.263Z,10.34
2018-03-25T10:53:58.188Z,10.38
2018-03-25T10:54:58.111Z,10.44
2018-03-25T10:55:58.032Z,10.34
2018-03-25T10:56:57.953Z,10.34
2018-03-25T10:57:57.876Z,10.49
2018-03-25T10:58:57.797Z,10.49
2018-03-25T10:59:57.728Z,10.49
2018-03-25T11:00:57.640Z,10.44
2018-03-25T11:01:57.648Z,10.60
2018-03-25T11:02:57.483Z,10.60
2018-03-25T11:03:57.405Z,10.63
2018-03-25T11:04:57.339Z,10.63
2018-03-25T11:05:57.249Z,10.76
2018-03-25T11:06:57.172Z,10.82
2018-03-25T11:07:57.095Z,10.86
2018-03-25T11:08:57.070Z,10.90
2018-03-25T11:09:56.938Z,11.07
2018-03-25T11:10:56.859Z,11.15
2018-03-25T11:11:56.784Z,11.25
2018-03-25T11:12:56.752Z,11.44
2018-03-25T11:13:56.626Z,11.54
2018-03-25T11:14:56.549Z,11.59
2018-03-25T11:15:56.531Z,11.66
2018-03-25T11:16:56.394Z,11.75
2018-03-25T11:17:56.317Z,11.80
2018-03-25T11:18:56.263Z,11.95
2018-03-25T11:19:56.178Z,11.99
2018-03-25T11:20:56.119Z,12.04
2018-03-25T11:21:56.011Z,12.04
2018-03-25T11:22:55.958Z,12.02
2018-03-25T11:23:55.855Z,12.03
2018-03-25T11:24:55.780Z,12.17
2018-03-25T11:25:55.704Z,12.40
2018-03-25T11:26:55.671Z,12.49
2018-03-25T11:27:55.549Z,12.68
2018-03-25T11:28:55.490Z,12.72
2018-03-25T11:29:55.423Z,12.82
2018-03-25T11:30:55.320Z,12.91
2018-03-25T11:31:55.284Z,12.93
2018-03-25T11:32:55.194Z,13.08
2018-03-25T11:33:55.093Z,13.08
2018-03-25T11:34:55.018Z,13.16
2018-03-25T11:35:54.942Z,13.23
2018-03-25T11:36:54.865Z,13.38
2018-03-25T11:37:54.789Z,13.47
2018-03-25T11:38:54.716Z,13.65
2018-03-25T11:39:54.639Z,13.68
2018-03-25T11:40:54.563Z,13.83
2018-03-25T11:41:54.489Z,13.96
2018-03-25T11:42:54.421Z,14.08
2018-03-25T11:43:54.339Z,14.25
2018-03-25T11:44:54.266Z,14.23
2018-03-25T11:45:54.228Z,14.47
2018-03-25T11:46:54.121Z,14.60
2018-03-25T11:47:54.045Z,14.92
2018-03-25T11:48:53.977Z,15.19
2018-03-25T11:49:53.901Z,15.72
2018-03-25T11:50:53.831Z,16.41
2018-03-25T11:51:53.764Z,16.99
2018-03-25T11:52:53.691Z,17.57
2018-03-25T11:53:53.622Z,18.25
2018-03-25T11:54:53.556Z,18.84
2018-03-25T11:55:53.488Z,19.33
2018-03-25T11:56:53.419Z,19.74
2018-03-25T11:57:53.354Z,20.10
2018-03-25T11:58:53.286Z,20.55
2018-03-25T11:59:53.226Z,20.75
2018-03-25T12:00:53.158Z,21.14
2018-03-25T12:01:53.099Z,21.39
2018-03-25T12:02:53.031Z,21.80
2018-03-25T12:03:52.969Z,22.20
2018-03-25T12:04:52.901Z,22.73
2018-03-25T12:05:52.837Z,23.43
2018-03-25T12:06:52.774Z,23.98
2018-03-25T12:07:52.711Z,24.73
2018-03-25T12:08:52.652Z,25.29
2018-03-25T12:09:52.587Z,25.85
2018-03-25T12:10:52.526Z,26.00
2018-03-25T12:11:52.466Z,26.16
2018-03-25T12:12:52.413Z,26.48
2018-03-25T12:13:52.344Z,26.92
2018-03-25T12:14:52.283Z,26.90
2018-03-25T12:15:52.226Z,26.80
2018-03-25T12:16:52.162Z,26.71
2018-03-25T12:17:52.099Z,25.91
2018-03-25T12:18:52.083Z,25.62
2018-03-25T12:19:51.981Z,25.59
2018-03-25T12:20:51.977Z,25.85
2018-03-25T12:21:51.863Z,26.07
2018-03-25T12:22:51.805Z,26.58
2018-03-25T12:23:51.750Z,27.02
2018-03-25T12:24:51.683Z,27.45
2018-03-25T12:25:51.626Z,27.82
2018-03-25T12:26:51.567Z,27.10
2018-03-25T12:27:51.510Z,27.29
2018-03-25T12:28:51.449Z,27.18
2018-03-25T12:29:51.389Z,26.93
2018-03-25T12:30:51.336Z,26.68
2018-03-25T12:31:51.277Z,26.56
2018-03-25T12:32:51.218Z,26.65
2018-03-25T12:33:51.167Z,26.84
2018-03-25T12:34:51.107Z,27.11
2018-03-25T12:35:51.048Z,27.55
2018-03-25T12:36:51.051Z,28.04
2018-03-25T12:37:50.934Z,28.54
2018-03-25T12:38:50.877Z,28.47
2018-03-25T12:39:50.825Z,28.23
2018-03-25T12:40:50.763Z,28.27
2018-03-25T12:41:50.712Z,28.07
2018-03-25T12:42:50.652Z,28.02
2018-03-25T12:43:50.591Z,28.05
2018-03-25T12:44:50.571Z,28.20
2018-03-25T12:45:50.549Z,28.10
2018-03-25T12:46:50.431Z,28.26
2018-03-25T12:47:50.370Z,28.14
2018-03-25T12:48:50.310Z,27.77
2018-03-25T12:49:50.317Z,27.93
2018-03-25T12:50:50.199Z,28.26
2018-03-25T12:51:50.147Z,28.44
2018-03-25T12:52:50.087Z,28.86
2018-03-25T12:53:50.036Z,29.49
2018-03-25T12:54:49.993Z,29.54
2018-03-25T12:55:49.924Z,29.51
2018-03-25T12:56:49.867Z,29.59
2018-03-25T12:57:49.812Z,29.91
2018-03-25T12:58:49.758Z,30.02
2018-03-25T12:59:49.705Z,29.57
2018-03-25T13:00:49.646Z,29.51
2018-03-25T13:01:49.595Z,29.54
2018-03-25T13:02:49.542Z,29.56
2018-03-25T13:03:49.484Z,29.72
2018-03-25T13:04:49.485Z,29.90
2018-03-25T13:05:49.372Z,30.18
2018-03-25T13:06:49.319Z,29.72
2018-03-25T13:07:49.264Z,29.08
2018-03-25T13:08:49.209Z,28.82
2018-03-25T13:09:49.152Z,28.64
2018-03-25T13:10:49.098Z,28.25
2018-03-25T13:11:49.044Z,28.56
2018-03-25T13:12:48.986Z,28.67